Huvudsida
METAR-TAF:

METAR-TAF

Flygplatser :

Parsabad-Moghan Airport

Parsabad, Iran

latitud: 39-36-13N, longitud: 47-52-53E, höjd: 77 m

Aktuellt väderrapport

Denna rapport gjordes för 58 minuter sedan, klockan 12:00 UTC
Stilla vind
Temperatur 19°C
Fuktighet 49%
Tryck 1024 hPa
Sikt 10 km eller mer
Inga moln under 1 500 m eller inga cumulonimbus

METAR: OITP 121200Z 00000KT CAVOK 19/08 Q1024

Tid: 16:28 (12:58 UTC)


TAF: saknas

Aktuella väderrapporter och prognoser från 4000 flygplatser (METAR- och TAF-rapporter).

De tillgängliga stationerna syns som gula och röda prickar på kartan.

För musen över prickarna för att se namnen på stationerna.

Klicka sedan för att få väderrapporter och prognoser.

För att ändra kartan: Klicka på de gröna knapparna med ett svart kors på för att zooma in; den gröna knappen med ett streck på för att zooma ut; eller på de gröna pilarna för angränsande kartor.


METAR-TAF: